sensor_id;sensor_type;location;lat;lon;timestamp;temperature;humidity
5457;DHT22;2751;49.802;9.944;2023-03-04T00:02:22;0.90;1.00
5457;DHT22;2751;49.802;9.944;2023-03-04T00:04:48;0.80;1.00
5457;DHT22;2751;49.802;9.944;2023-03-04T00:07:15;0.90;1.00
5457;DHT22;2751;49.802;9.944;2023-03-04T00:09:43;0.80;1.00
5457;DHT22;2751;49.802;9.944;2023-03-04T00:12:11;0.80;1.00
5457;DHT22;2751;49.802;9.944;2023-03-04T00:14:39;1.20;1.00
5457;DHT22;2751;49.802;9.944;2023-03-04T00:17:07;1.10;1.00
5457;DHT22;2751;49.802;9.944;2023-03-04T00:19:34;0.70;1.00
5457;DHT22;2751;49.802;9.944;2023-03-04T00:22:01;0.70;9.00
5457;DHT22;2751;49.802;9.944;2023-03-04T00:24:28;0.60;20.40
5457;DHT22;2751;49.802;9.944;2023-03-04T00:26:55;0.60;18.50
5457;DHT22;2751;49.802;9.944;2023-03-04T00:29:22;0.60;15.10
5457;DHT22;2751;49.802;9.944;2023-03-04T00:31:50;0.50;25.50
5457;DHT22;2751;49.802;9.944;2023-03-04T00:34:17;0.50;90.10
5457;DHT22;2751;49.802;9.944;2023-03-04T00:36:44;0.50;99.90
5457;DHT22;2751;49.802;9.944;2023-03-04T00:39:11;0.40;99.90
5457;DHT22;2751;49.802;9.944;2023-03-04T00:41:38;0.40;99.90
5457;DHT22;2751;49.802;9.944;2023-03-04T00:44:05;0.80;99.90
5457;DHT22;2751;49.802;9.944;2023-03-04T00:46:32;0.30;99.90
5457;DHT22;2751;49.802;9.944;2023-03-04T00:49:01;0.30;99.90
5457;DHT22;2751;49.802;9.944;2023-03-04T00:51:27;0.30;99.90
5457;DHT22;2751;49.802;9.944;2023-03-04T00:53:54;0.30;99.90
5457;DHT22;2751;49.802;9.944;2023-03-04T00:56:21;0.20;99.90
5457;DHT22;2751;49.802;9.944;2023-03-04T00:58:48;0.30;99.90
5457;DHT22;2751;49.802;9.944;2023-03-04T01:01:15;0.20;99.90
5457;DHT22;2751;49.802;9.944;2023-03-04T01:03:42;0.20;99.90
5457;DHT22;2751;49.802;9.944;2023-03-04T01:06:10;0.20;99.90
5457;DHT22;2751;49.802;9.944;2023-03-04T01:08:37;0.50;99.90
5457;DHT22;2751;49.802;9.944;2023-03-04T01:11:04;0.50;99.90
5457;DHT22;2751;49.802;9.944;2023-03-04T01:13:31;0.20;99.90
5457;DHT22;2751;49.802;9.944;2023-03-04T01:15:58;0.10;99.90
5457;DHT22;2751;49.802;9.944;2023-03-04T01:18:26;0.10;99.90
5457;DHT22;2751;49.802;9.944;2023-03-04T01:20:53;0.10;99.90
5457;DHT22;2751;49.802;9.944;2023-03-04T01:23:21;0.30;99.90
5457;DHT22;2751;49.802;9.944;2023-03-04T01:25:48;0.10;99.90
5457;DHT22;2751;49.802;9.944;2023-03-04T01:28:15;0.00;99.90
5457;DHT22;2751;49.802;9.944;2023-03-04T01:30:42;0.60;99.90
5457;DHT22;2751;49.802;9.944;2023-03-04T01:33:09;0.00;99.90
5457;DHT22;2751;49.802;9.944;2023-03-04T01:35:36;0.00;99.90
5457;DHT22;2751;49.802;9.944;2023-03-04T01:38:03;0.10;99.90
5457;DHT22;2751;49.802;9.944;2023-03-04T01:40:31;0.10;99.90
5457;DHT22;2751;49.802;9.944;2023-03-04T01:42:58;0.00;99.90
5457;DHT22;2751;49.802;9.944;2023-03-04T01:45:25;0.00;99.90
5457;DHT22;2751;49.802;9.944;2023-03-04T01:47:52;0.00;99.90
5457;DHT22;2751;49.802;9.944;2023-03-04T01:50:22;0.00;99.90
5457;DHT22;2751;49.802;9.944;2023-03-04T01:52:54;-0.10;99.90
5457;DHT22;2751;49.802;9.944;2023-03-04T01:55:22;-0.10;99.90
5457;DHT22;2751;49.802;9.944;2023-03-04T01:57:51;0.20;1.00
5457;DHT22;2751;49.802;9.944;2023-03-04T02:00:25;0.30;1.00
5457;DHT22;2751;49.802;9.944;2023-03-04T02:02:54;-0.20;1.00
5457;DHT22;2751;49.802;9.944;2023-03-04T02:05:22;0.20;1.00
5457;DHT22;2751;49.802;9.944;2023-03-04T02:07:51;-0.10;1.00
5457;DHT22;2751;49.802;9.944;2023-03-04T02:10:19;-0.10;1.00
5457;DHT22;2751;49.802;9.944;2023-03-04T02:12:46;0.00;1.00
5457;DHT22;2751;49.802;9.944;2023-03-04T02:15:16;0.00;1.00
5457;DHT22;2751;49.802;9.944;2023-03-04T02:17:43;0.00;1.00
5457;DHT22;2751;49.802;9.944;2023-03-04T02:20:18;0.00;7.70
5457;DHT22;2751;49.802;9.944;2023-03-04T02:22:56;0.10;5.90
5457;DHT22;2751;49.802;9.944;2023-03-04T02:25:30;0.10;15.50
5457;DHT22;2751;49.802;9.944;2023-03-04T02:28:02;0.20;87.30
5457;DHT22;2751;49.802;9.944;2023-03-04T02:30:29;0.20;99.90
5457;DHT22;2751;49.802;9.944;2023-03-04T02:32:56;0.30;99.90
5457;DHT22;2751;49.802;9.944;2023-03-04T02:35:23;0.30;99.90
5457;DHT22;2751;49.802;9.944;2023-03-04T02:37:52;0.30;99.90
5457;DHT22;2751;49.802;9.944;2023-03-04T02:40:27;0.30;95.70
5457;DHT22;2751;49.802;9.944;2023-03-04T02:42:59;0.70;99.90
5457;DHT22;2751;49.802;9.944;2023-03-04T02:45:36;0.40;52.50
5457;DHT22;2751;49.802;9.944;2023-03-04T02:48:04;0.50;1.00
5457;DHT22;2751;49.802;9.944;2023-03-04T02:50:34;0.50;1.00
5457;DHT22;2751;49.802;9.944;2023-03-04T02:53:02;0.60;1.00
5457;DHT22;2751;49.802;9.944;2023-03-04T02:55:36;1.20;1.00
5457;DHT22;2751;49.802;9.944;2023-03-04T02:58:03;1.30;1.00
5457;DHT22;2751;49.802;9.944;2023-03-04T03:00:32;0.90;1.00
5457;DHT22;2751;49.802;9.944;2023-03-04T03:03:04;1.00;1.00
5457;DHT22;2751;49.802;9.944;2023-03-04T03:05:32;1.10;1.00
5457;DHT22;2751;49.802;9.944;2023-03-04T03:07:59;1.10;1.00
5457;DHT22;2751;49.802;9.944;2023-03-04T03:10:28;1.60;1.00
5457;DHT22;2751;49.802;9.944;2023-03-04T03:12:56;1.20;1.00
5457;DHT22;2751;49.802;9.944;2023-03-04T03:15:23;1.30;1.00
5457;DHT22;2751;49.802;9.944;2023-03-04T03:17:49;1.30;1.00
5457;DHT22;2751;49.802;9.944;2023-03-04T03:20:18;1.30;1.00
5457;DHT22;2751;49.802;9.944;2023-03-04T03:22:45;1.30;1.00
5457;DHT22;2751;49.802;9.944;2023-03-04T03:25:14;1.20;1.00
5457;DHT22;2751;49.802;9.944;2023-03-04T03:27:41;1.10;1.00
5457;DHT22;2751;49.802;9.944;2023-03-04T03:30:11;1.20;1.00
5457;DHT22;2751;49.802;9.944;2023-03-04T03:32:38;1.20;1.00
5457;DHT22;2751;49.802;9.944;2023-03-04T03:35:05;1.60;1.00
5457;DHT22;2751;49.802;9.944;2023-03-04T03:37:33;1.30;1.00
5457;DHT22;2751;49.802;9.944;2023-03-04T03:40:00;1.30;1.00
5457;DHT22;2751;49.802;9.944;2023-03-04T03:42:27;1.40;1.00
5457;DHT22;2751;49.802;9.944;2023-03-04T03:44:54;1.50;1.00
5457;DHT22;2751;49.802;9.944;2023-03-04T03:47:21;1.50;1.00
5457;DHT22;2751;49.802;9.944;2023-03-04T03:49:48;1.60;99.90
5457;DHT22;2751;49.802;9.944;2023-03-04T03:52:15;1.60;99.90
5457;DHT22;2751;49.802;9.944;2023-03-04T03:54:43;1.60;99.90
5457;DHT22;2751;49.802;9.944;2023-03-04T03:57:10;1.60;99.90
5457;DHT22;2751;49.802;9.944;2023-03-04T03:59:37;1.60;99.90
5457;DHT22;2751;49.802;9.944;2023-03-04T04:02:04;1.70;99.90
5457;DHT22;2751;49.802;9.944;2023-03-04T04:04:31;1.70;99.90
5457;DHT22;2751;49.802;9.944;2023-03-04T04:06:58;1.70;99.90
5457;DHT22;2751;49.802;9.944;2023-03-04T04:09:25;1.70;99.90
5457;DHT22;2751;49.802;9.944;2023-03-04T04:11:53;1.70;99.90
5457;DHT22;2751;49.802;9.944;2023-03-04T04:14:20;1.80;99.90
5457;DHT22;2751;49.802;9.944;2023-03-04T04:16:47;1.80;99.90
5457;DHT22;2751;49.802;9.944;2023-03-04T04:19:16;1.80;99.90
5457;DHT22;2751;49.802;9.944;2023-03-04T04:21:44;1.80;99.90
5457;DHT22;2751;49.802;9.944;2023-03-04T04:24:11;1.80;99.90
5457;DHT22;2751;49.802;9.944;2023-03-04T04:26:38;1.70;99.90
5457;DHT22;2751;49.802;9.944;2023-03-04T04:29:06;1.80;99.90
5457;DHT22;2751;49.802;9.944;2023-03-04T04:31:34;1.80;99.90
5457;DHT22;2751;49.802;9.944;2023-03-04T04:34:01;1.90;99.90
5457;DHT22;2751;49.802;9.944;2023-03-04T04:36:28;1.90;99.90
5457;DHT22;2751;49.802;9.944;2023-03-04T04:38:55;1.90;99.90
5457;DHT22;2751;49.802;9.944;2023-03-04T04:41:25;2.00;99.90
5457;DHT22;2751;49.802;9.944;2023-03-04T04:43:52;1.90;99.90
5457;DHT22;2751;49.802;9.944;2023-03-04T04:46:21;1.90;99.90
5457;DHT22;2751;49.802;9.944;2023-03-04T04:48:49;1.90;99.90
5457;DHT22;2751;49.802;9.944;2023-03-04T04:51:15;1.90;99.90
5457;DHT22;2751;49.802;9.944;2023-03-04T04:53:42;1.80;99.90
5457;DHT22;2751;49.802;9.944;2023-03-04T04:56:11;1.80;99.90
5457;DHT22;2751;49.802;9.944;2023-03-04T04:58:39;1.80;99.90
5457;DHT22;2751;49.802;9.944;2023-03-04T05:01:06;2.20;99.90
5457;DHT22;2751;49.802;9.944;2023-03-04T05:03:35;1.90;99.90
5457;DHT22;2751;49.802;9.944;2023-03-04T05:06:06;1.90;85.00
5457;DHT22;2751;49.802;9.944;2023-03-04T05:08:34;1.90;99.90
5457;DHT22;2751;49.802;9.944;2023-03-04T05:11:03;1.90;62.50
5457;DHT22;2751;49.802;9.944;2023-03-04T05:13:31;1.80;93.20
5457;DHT22;2751;49.802;9.944;2023-03-04T05:15:58;1.80;99.90
5457;DHT22;2751;49.802;9.944;2023-03-04T05:18:26;1.80;99.90
5457;DHT22;2751;49.802;9.944;2023-03-04T05:20:55;1.90;96.70
5457;DHT22;2751;49.802;9.944;2023-03-04T05:23:23;2.00;62.90
5457;DHT22;2751;49.802;9.944;2023-03-04T05:25:50;2.40;34.30
5457;DHT22;2751;49.802;9.944;2023-03-04T05:28:17;1.90;29.20
5457;DHT22;2751;49.802;9.944;2023-03-04T05:30:47;1.90;42.60
5457;DHT22;2751;49.802;9.944;2023-03-04T05:33:15;1.90;47.80
5457;DHT22;2751;49.802;9.944;2023-03-04T05:35:43;1.90;36.10
5457;DHT22;2751;49.802;9.944;2023-03-04T05:38:13;1.90;37.10
5457;DHT22;2751;49.802;9.944;2023-03-04T05:40:40;2.00;25.20
5457;DHT22;2751;49.802;9.944;2023-03-04T05:43:08;1.90;22.80
5457;DHT22;2751;49.802;9.944;2023-03-04T05:45:35;1.90;29.50
5457;DHT22;2751;49.802;9.944;2023-03-04T05:48:02;1.90;30.90
5457;DHT22;2751;49.802;9.944;2023-03-04T05:50:30;2.00;24.10
5457;DHT22;2751;49.802;9.944;2023-03-04T05:52:57;2.00;21.00
5457;DHT22;2751;49.802;9.944;2023-03-04T05:55:25;2.50;12.90
5457;DHT22;2751;49.802;9.944;2023-03-04T05:57:54;2.50;11.90
5457;DHT22;2751;49.802;9.944;2023-03-04T06:00:21;2.10;10.40
5457;DHT22;2751;49.802;9.944;2023-03-04T06:02:48;2.10;1.00
5457;DHT22;2751;49.802;9.944;2023-03-04T06:05:15;2.10;1.00
5457;DHT22;2751;49.802;9.944;2023-03-04T06:07:42;2.10;1.00
5457;DHT22;2751;49.802;9.944;2023-03-04T06:10:14;2.10;1.00
5457;DHT22;2751;49.802;9.944;2023-03-04T06:12:43;2.10;1.00
5457;DHT22;2751;49.802;9.944;2023-03-04T06:15:11;2.00;1.00
5457;DHT22;2751;49.802;9.944;2023-03-04T06:17:39;2.50;1.00
5457;DHT22;2751;49.802;9.944;2023-03-04T06:20:08;2.10;1.00
5457;DHT22;2751;49.802;9.944;2023-03-04T06:22:35;2.10;1.00
5457;DHT22;2751;49.802;9.944;2023-03-04T06:25:02;2.10;1.00
5457;DHT22;2751;49.802;9.944;2023-03-04T06:27:29;2.10;1.00
5457;DHT22;2751;49.802;9.944;2023-03-04T06:29:57;2.10;1.00
5457;DHT22;2751;49.802;9.944;2023-03-04T06:32:24;2.20;1.00
5457;DHT22;2751;49.802;9.944;2023-03-04T06:34:51;2.20;1.00
5457;DHT22;2751;49.802;9.944;2023-03-04T06:37:18;2.20;1.00
5457;DHT22;2751;49.802;9.944;2023-03-04T06:39:45;2.30;1.00
5457;DHT22;2751;49.802;9.944;2023-03-04T06:42:12;2.30;1.00
5457;DHT22;2751;49.802;9.944;2023-03-04T06:44:39;2.40;1.00
5457;DHT22;2751;49.802;9.944;2023-03-04T06:47:07;2.40;1.00
5457;DHT22;2751;49.802;9.944;2023-03-04T06:49:34;2.40;1.00
5457;DHT22;2751;49.802;9.944;2023-03-04T06:52:01;2.40;1.00
5457;DHT22;2751;49.802;9.944;2023-03-04T06:54:28;2.40;1.00
5457;DHT22;2751;49.802;9.944;2023-03-04T06:56:55;2.40;1.00
5457;DHT22;2751;49.802;9.944;2023-03-04T06:59:22;2.40;1.00
5457;DHT22;2751;49.802;9.944;2023-03-04T07:01:48;2.50;1.00
5457;DHT22;2751;49.802;9.944;2023-03-04T07:04:17;2.50;1.00
5457;DHT22;2751;49.802;9.944;2023-03-04T07:06:44;2.40;1.00
5457;DHT22;2751;49.802;9.944;2023-03-04T07:09:10;2.40;1.00
5457;DHT22;2751;49.802;9.944;2023-03-04T07:11:37;2.90;1.00
5457;DHT22;2751;49.802;9.944;2023-03-04T07:14:04;2.50;1.00
5457;DHT22;2751;49.802;9.944;2023-03-04T07:16:31;2.60;1.00
5457;DHT22;2751;49.802;9.944;2023-03-04T07:18:58;2.50;1.00
5457;DHT22;2751;49.802;9.944;2023-03-04T07:21:26;2.50;1.00
5457;DHT22;2751;49.802;9.944;2023-03-04T07:23:53;2.60;1.00
5457;DHT22;2751;49.802;9.944;2023-03-04T07:26:20;2.70;1.00
5457;DHT22;2751;49.802;9.944;2023-03-04T07:28:47;2.70;1.00
5457;DHT22;2751;49.802;9.944;2023-03-04T07:31:20;2.80;1.00
5457;DHT22;2751;49.802;9.944;2023-03-04T07:33:47;3.10;1.00
5457;DHT22;2751;49.802;9.944;2023-03-04T07:36:14;2.90;1.00
5457;DHT22;2751;49.802;9.944;2023-03-04T07:38:44;3.30;1.00
5457;DHT22;2751;49.802;9.944;2023-03-04T07:41:11;3.20;1.00
5457;DHT22;2751;49.802;9.944;2023-03-04T07:43:38;2.90;1.00
5457;DHT22;2751;49.802;9.944;2023-03-04T07:46:05;2.90;1.00
5457;DHT22;2751;49.802;9.944;2023-03-04T07:48:32;2.90;1.00
5457;DHT22;2751;49.802;9.944;2023-03-04T07:51:05;2.90;1.00
5457;DHT22;2751;49.802;9.944;2023-03-04T07:53:32;2.80;1.00
5457;DHT22;2751;49.802;9.944;2023-03-04T07:56:01;2.90;1.00
5457;DHT22;2751;49.802;9.944;2023-03-04T07:58:29;2.80;1.00
5457;DHT22;2751;49.802;9.944;2023-03-04T08:00:56;2.90;1.00
5457;DHT22;2751;49.802;9.944;2023-03-04T08:03:24;2.90;1.00
5457;DHT22;2751;49.802;9.944;2023-03-04T08:05:51;3.00;1.00
5457;DHT22;2751;49.802;9.944;2023-03-04T08:08:17;3.00;1.00
5457;DHT22;2751;49.802;9.944;2023-03-04T08:10:44;3.10;1.00
5457;DHT22;2751;49.802;9.944;2023-03-04T08:13:13;3.20;1.00
5457;DHT22;2751;49.802;9.944;2023-03-04T08:15:40;3.30;1.00
5457;DHT22;2751;49.802;9.944;2023-03-04T08:18:07;3.50;1.00
5457;DHT22;2751;49.802;9.944;2023-03-04T08:20:34;3.30;1.00
5457;DHT22;2751;49.802;9.944;2023-03-04T08:23:02;3.40;1.00
5457;DHT22;2751;49.802;9.944;2023-03-04T08:25:29;3.40;1.00
5457;DHT22;2751;49.802;9.944;2023-03-04T08:27:55;3.40;1.00
5457;DHT22;2751;49.802;9.944;2023-03-04T08:30:24;3.30;1.00
5457;DHT22;2751;49.802;9.944;2023-03-04T08:32:51;3.60;1.00
5457;DHT22;2751;49.802;9.944;2023-03-04T08:35:17;3.40;1.00
5457;DHT22;2751;49.802;9.944;2023-03-04T08:37:44;3.40;1.00
5457;DHT22;2751;49.802;9.944;2023-03-04T08:40:13;3.30;1.00
5457;DHT22;2751;49.802;9.944;2023-03-04T08:42:40;3.30;1.00
5457;DHT22;2751;49.802;9.944;2023-03-04T08:45:08;3.40;1.00
5457;DHT22;2751;49.802;9.944;2023-03-04T08:47:36;3.50;1.00
5457;DHT22;2751;49.802;9.944;2023-03-04T08:50:04;3.50;1.00
5457;DHT22;2751;49.802;9.944;2023-03-04T08:52:32;3.50;1.00
5457;DHT22;2751;49.802;9.944;2023-03-04T08:54:59;3.50;1.00
5457;DHT22;2751;49.802;9.944;2023-03-04T08:57:26;3.70;1.00
5457;DHT22;2751;49.802;9.944;2023-03-04T08:59:53;3.60;1.00
5457;DHT22;2751;49.802;9.944;2023-03-04T09:02:20;3.70;1.00
5457;DHT22;2751;49.802;9.944;2023-03-04T09:04:48;4.20;1.00
5457;DHT22;2751;49.802;9.944;2023-03-04T09:07:15;3.70;1.00
5457;DHT22;2751;49.802;9.944;2023-03-04T09:09:41;4.10;1.00
5457;DHT22;2751;49.802;9.944;2023-03-04T09:12:09;3.70;1.00
5457;DHT22;2751;49.802;9.944;2023-03-04T09:14:35;4.20;1.00
5457;DHT22;2751;49.802;9.944;2023-03-04T09:17:03;3.90;1.00
5457;DHT22;2751;49.802;9.944;2023-03-04T09:19:30;4.10;1.00
5457;DHT22;2751;49.802;9.944;2023-03-04T09:21:58;4.20;1.00
5457;DHT22;2751;49.802;9.944;2023-03-04T09:24:26;4.10;1.00
5457;DHT22;2751;49.802;9.944;2023-03-04T09:26:54;4.10;1.00
5457;DHT22;2751;49.802;9.944;2023-03-04T09:29:21;4.10;1.00
5457;DHT22;2751;49.802;9.944;2023-03-04T09:31:48;4.30;1.00
5457;DHT22;2751;49.802;9.944;2023-03-04T09:34:15;4.20;1.00
5457;DHT22;2751;49.802;9.944;2023-03-04T09:36:42;4.20;1.00
5457;DHT22;2751;49.802;9.944;2023-03-04T09:39:10;4.20;1.00
5457;DHT22;2751;49.802;9.944;2023-03-04T09:41:41;4.10;1.00
5457;DHT22;2751;49.802;9.944;2023-03-04T09:44:20;4.40;1.00
5457;DHT22;2751;49.802;9.944;2023-03-04T09:46:49;4.20;1.00
5457;DHT22;2751;49.802;9.944;2023-03-04T09:49:17;4.20;1.00
5457;DHT22;2751;49.802;9.944;2023-03-04T09:51:54;4.30;1.00
5457;DHT22;2751;49.802;9.944;2023-03-04T09:54:48;4.30;1.00
5457;DHT22;2751;49.802;9.944;2023-03-04T09:57:23;4.30;1.00
5457;DHT22;2751;49.802;9.944;2023-03-04T10:00:06;4.60;1.00
5457;DHT22;2751;49.802;9.944;2023-03-04T10:02:48;4.40;1.00
5457;DHT22;2751;49.802;9.944;2023-03-04T10:05:19;4.40;1.00
5457;DHT22;2751;49.802;9.944;2023-03-04T10:07:51;4.40;1.00
5457;DHT22;2751;49.802;9.944;2023-03-04T10:10:26;4.50;1.00
5457;DHT22;2751;49.802;9.944;2023-03-04T10:12:57;4.40;1.00
5457;DHT22;2751;49.802;9.944;2023-03-04T10:15:31;4.60;1.00
5457;DHT22;2751;49.802;9.944;2023-03-04T10:18:03;4.50;1.00
5457;DHT22;2751;49.802;9.944;2023-03-04T10:20:46;4.50;1.00
5457;DHT22;2751;49.802;9.944;2023-03-04T10:23:18;4.60;1.00
5457;DHT22;2751;49.802;9.944;2023-03-04T10:25:49;4.50;1.00
5457;DHT22;2751;49.802;9.944;2023-03-04T10:28:20;4.90;1.00
5457;DHT22;2751;49.802;9.944;2023-03-04T10:30:51;4.90;1.00
5457;DHT22;2751;49.802;9.944;2023-03-04T10:33:21;4.90;1.00
5457;DHT22;2751;49.802;9.944;2023-03-04T10:35:51;5.00;1.00
5457;DHT22;2751;49.802;9.944;2023-03-04T10:38:19;5.10;1.00
5457;DHT22;2751;49.802;9.944;2023-03-04T10:40:48;5.10;1.00
5457;DHT22;2751;49.802;9.944;2023-03-04T10:43:16;5.10;1.00
5457;DHT22;2751;49.802;9.944;2023-03-04T10:45:44;5.10;1.00
5457;DHT22;2751;49.802;9.944;2023-03-04T10:48:19;5.10;1.00
5457;DHT22;2751;49.802;9.944;2023-03-04T10:50:46;5.40;1.00
5457;DHT22;2751;49.802;9.944;2023-03-04T10:53:28;5.10;1.00
5457;DHT22;2751;49.802;9.944;2023-03-04T10:55:59;5.10;1.00
5457;DHT22;2751;49.802;9.944;2023-03-04T10:58:27;5.00;1.00
5457;DHT22;2751;49.802;9.944;2023-03-04T11:01:03;5.20;1.00
5457;DHT22;2751;49.802;9.944;2023-03-04T11:03:32;5.00;1.00
5457;DHT22;2751;49.802;9.944;2023-03-04T11:06:09;5.00;1.00
5457;DHT22;2751;49.802;9.944;2023-03-04T11:08:39;5.00;1.00
5457;DHT22;2751;49.802;9.944;2023-03-04T11:11:24;5.20;1.00
5457;DHT22;2751;49.802;9.944;2023-03-04T11:13:58;5.00;1.00
5457;DHT22;2751;49.802;9.944;2023-03-04T11:16:27;5.50;1.00
5457;DHT22;2751;49.802;9.944;2023-03-04T11:19:00;5.50;1.00
5457;DHT22;2751;49.802;9.944;2023-03-04T11:21:30;5.60;1.00
5457;DHT22;2751;49.802;9.944;2023-03-04T11:24:02;5.60;1.00
5457;DHT22;2751;49.802;9.944;2023-03-04T11:26:33;5.50;1.00
5457;DHT22;2751;49.802;9.944;2023-03-04T11:29:07;5.60;1.00
5457;DHT22;2751;49.802;9.944;2023-03-04T11:31:39;5.60;1.00
5457;DHT22;2751;49.802;9.944;2023-03-04T11:34:14;5.40;1.00
5457;DHT22;2751;49.802;9.944;2023-03-04T11:36:53;5.40;1.00
5457;DHT22;2751;49.802;9.944;2023-03-04T11:39:28;5.30;1.00
5457;DHT22;2751;49.802;9.944;2023-03-04T11:42:01;5.30;1.00
5457;DHT22;2751;49.802;9.944;2023-03-04T11:44:30;5.50;1.00
5457;DHT22;2751;49.802;9.944;2023-03-04T11:47:05;5.70;1.00
5457;DHT22;2751;49.802;9.944;2023-03-04T11:49:53;5.50;1.00
5457;DHT22;2751;49.802;9.944;2023-03-04T11:52:32;5.60;1.00
5457;DHT22;2751;49.802;9.944;2023-03-04T11:55:22;5.60;1.00
5457;DHT22;2751;49.802;9.944;2023-03-04T11:58:00;5.60;1.00
5457;DHT22;2751;49.802;9.944;2023-03-04T12:00:35;5.50;1.00
5457;DHT22;2751;49.802;9.944;2023-03-04T12:03:19;5.50;1.00
5457;DHT22;2751;49.802;9.944;2023-03-04T12:05:57;5.40;1.00
5457;DHT22;2751;49.802;9.944;2023-03-04T12:08:38;5.30;1.00
5457;DHT22;2751;49.802;9.944;2023-03-04T12:11:12;5.30;1.00
5457;DHT22;2751;49.802;9.944;2023-03-04T12:13:55;5.60;1.00
5457;DHT22;2751;49.802;9.944;2023-03-04T12:16:36;5.50;1.00
5457;DHT22;2751;49.802;9.944;2023-03-04T12:19:21;5.50;1.00
5457;DHT22;2751;49.802;9.944;2023-03-04T12:22:07;5.40;1.00
5457;DHT22;2751;49.802;9.944;2023-03-04T12:24:49;5.30;1.00
5457;DHT22;2751;49.802;9.944;2023-03-04T12:27:25;5.30;1.00
5457;DHT22;2751;49.802;9.944;2023-03-04T12:29:58;5.40;1.00
5457;DHT22;2751;49.802;9.944;2023-03-04T12:32:35;5.50;1.00
5457;DHT22;2751;49.802;9.944;2023-03-04T12:35:21;5.30;1.00
5457;DHT22;2751;49.802;9.944;2023-03-04T12:37:59;5.50;1.00
5457;DHT22;2751;49.802;9.944;2023-03-04T12:40:35;5.30;1.00
5457;DHT22;2751;49.802;9.944;2023-03-04T12:43:14;5.30;1.00
5457;DHT22;2751;49.802;9.944;2023-03-04T12:45:50;5.40;1.00
5457;DHT22;2751;49.802;9.944;2023-03-04T12:48:28;5.40;1.00
5457;DHT22;2751;49.802;9.944;2023-03-04T12:51:06;5.50;1.00
5457;DHT22;2751;49.802;9.944;2023-03-04T12:53:40;5.60;1.00
5457;DHT22;2751;49.802;9.944;2023-03-04T12:56:21;5.60;1.00
5457;DHT22;2751;49.802;9.944;2023-03-04T12:58:49;5.60;1.00
5457;DHT22;2751;49.802;9.944;2023-03-04T13:01:22;5.60;1.00
5457;DHT22;2751;49.802;9.944;2023-03-04T13:03:55;5.70;1.00
5457;DHT22;2751;49.802;9.944;2023-03-04T13:06:37;5.90;1.00
5457;DHT22;2751;49.802;9.944;2023-03-04T13:09:13;5.90;1.00
5457;DHT22;2751;49.802;9.944;2023-03-04T13:11:53;5.80;1.00
5457;DHT22;2751;49.802;9.944;2023-03-04T13:14:31;5.80;1.00
5457;DHT22;2751;49.802;9.944;2023-03-04T13:19:47;5.40;1.00
5457;DHT22;2751;49.802;9.944;2023-03-04T13:22:29;5.50;1.00
5457;DHT22;2751;49.802;9.944;2023-03-04T13:25:01;5.50;1.00
5457;DHT22;2751;49.802;9.944;2023-03-04T13:27:44;5.60;1.00
5457;DHT22;2751;49.802;9.944;2023-03-04T13:30:40;5.50;1.00
5457;DHT22;2751;49.802;9.944;2023-03-04T13:33:46;5.60;1.00
5457;DHT22;2751;49.802;9.944;2023-03-04T13:36:55;5.70;1.00
5457;DHT22;2751;49.802;9.944;2023-03-04T13:39:33;5.40;1.00
5457;DHT22;2751;49.802;9.944;2023-03-04T13:42:01;5.70;1.00
5457;DHT22;2751;49.802;9.944;2023-03-04T13:44:55;5.80;1.00
5457;DHT22;2751;49.802;9.944;2023-03-04T13:50:29;5.80;1.00
5457;DHT22;2751;49.802;9.944;2023-03-04T13:56:21;5.80;1.00
5457;DHT22;2751;49.802;9.944;2023-03-04T13:58:51;5.80;1.00
5457;DHT22;2751;49.802;9.944;2023-03-04T14:01:24;5.90;1.00
5457;DHT22;2751;49.802;9.944;2023-03-04T14:03:51;6.30;1.00
5457;DHT22;2751;49.802;9.944;2023-03-04T14:06:22;5.80;1.00
5457;DHT22;2751;49.802;9.944;2023-03-04T14:08:50;5.70;1.00
5457;DHT22;2751;49.802;9.944;2023-03-04T14:11:25;5.70;1.00
5457;DHT22;2751;49.802;9.944;2023-03-04T14:13:54;5.80;1.00
5457;DHT22;2751;49.802;9.944;2023-03-04T14:16:26;6.20;1.00
5457;DHT22;2751;49.802;9.944;2023-03-04T14:19:02;5.50;1.00
5457;DHT22;2751;49.802;9.944;2023-03-04T14:21:31;5.80;1.00
5457;DHT22;2751;49.802;9.944;2023-03-04T14:24:00;5.90;1.00
5457;DHT22;2751;49.802;9.944;2023-03-04T14:26:27;5.90;1.00
5457;DHT22;2751;49.802;9.944;2023-03-04T14:28:56;5.90;1.00
5457;DHT22;2751;49.802;9.944;2023-03-04T14:31:26;5.90;1.00
5457;DHT22;2751;49.802;9.944;2023-03-04T14:33:56;6.00;1.00
5457;DHT22;2751;49.802;9.944;2023-03-04T14:36:29;5.90;1.00
5457;DHT22;2751;49.802;9.944;2023-03-04T14:38:59;5.90;1.00
5457;DHT22;2751;49.802;9.944;2023-03-04T14:41:29;5.80;1.00
5457;DHT22;2751;49.802;9.944;2023-03-04T14:44:02;5.70;1.00
5457;DHT22;2751;49.802;9.944;2023-03-04T14:46:32;5.70;1.00
5457;DHT22;2751;49.802;9.944;2023-03-04T14:49:00;5.70;1.00
5457;DHT22;2751;49.802;9.944;2023-03-04T14:51:36;5.70;1.00
5457;DHT22;2751;49.802;9.944;2023-03-04T14:54:04;5.50;1.00
5457;DHT22;2751;49.802;9.944;2023-03-04T14:56:34;5.50;1.00
5457;DHT22;2751;49.802;9.944;2023-03-04T14:59:01;5.50;1.00
5457;DHT22;2751;49.802;9.944;2023-03-04T15:01:30;5.50;1.00
5457;DHT22;2751;49.802;9.944;2023-03-04T15:04:00;5.60;1.00
5457;DHT22;2751;49.802;9.944;2023-03-04T15:06:30;5.50;1.00
5457;DHT22;2751;49.802;9.944;2023-03-04T15:08:59;5.50;1.00
5457;DHT22;2751;49.802;9.944;2023-03-04T15:11:30;5.70;1.00
5457;DHT22;2751;49.802;9.944;2023-03-04T15:13:58;5.70;1.00
5457;DHT22;2751;49.802;9.944;2023-03-04T15:16:26;5.70;1.00
5457;DHT22;2751;49.802;9.944;2023-03-04T15:18:59;5.60;1.00
5457;DHT22;2751;49.802;9.944;2023-03-04T15:21:32;5.60;1.00
5457;DHT22;2751;49.802;9.944;2023-03-04T15:23:59;5.50;1.00
5457;DHT22;2751;49.802;9.944;2023-03-04T15:26:29;5.50;1.00
5457;DHT22;2751;49.802;9.944;2023-03-04T15:28:57;5.40;1.00
5457;DHT22;2751;49.802;9.944;2023-03-04T15:31:24;5.40;1.00
5457;DHT22;2751;49.802;9.944;2023-03-04T15:33:51;5.30;1.00
5457;DHT22;2751;49.802;9.944;2023-03-04T15:36:20;5.30;1.00
5457;DHT22;2751;49.802;9.944;2023-03-04T15:38:49;5.40;1.00
5457;DHT22;2751;49.802;9.944;2023-03-04T15:41:20;5.30;1.00
5457;DHT22;2751;49.802;9.944;2023-03-04T15:43:49;5.20;1.00
5457;DHT22;2751;49.802;9.944;2023-03-04T15:46:16;5.20;1.00
5457;DHT22;2751;49.802;9.944;2023-03-04T15:48:44;5.20;1.00
5457;DHT22;2751;49.802;9.944;2023-03-04T15:51:13;5.20;1.00
5457;DHT22;2751;49.802;9.944;2023-03-04T15:53:43;5.20;1.00
5457;DHT22;2751;49.802;9.944;2023-03-04T15:56:14;5.20;1.00
5457;DHT22;2751;49.802;9.944;2023-03-04T15:58:42;5.20;1.00
5457;DHT22;2751;49.802;9.944;2023-03-04T16:01:14;5.20;1.00
5457;DHT22;2751;49.802;9.944;2023-03-04T16:03:41;5.30;1.00
5457;DHT22;2751;49.802;9.944;2023-03-04T16:06:09;5.30;1.00
5457;DHT22;2751;49.802;9.944;2023-03-04T16:08:36;5.30;1.00
5457;DHT22;2751;49.802;9.944;2023-03-04T16:11:04;5.30;1.00
5457;DHT22;2751;49.802;9.944;2023-03-04T16:13:31;5.40;1.00
5457;DHT22;2751;49.802;9.944;2023-03-04T16:16:00;5.30;1.00
5457;DHT22;2751;49.802;9.944;2023-03-04T16:18:28;5.20;1.00
5457;DHT22;2751;49.802;9.944;2023-03-04T16:20:55;5.20;1.00
5457;DHT22;2751;49.802;9.944;2023-03-04T16:23:23;5.20;1.00
5457;DHT22;2751;49.802;9.944;2023-03-04T16:25:53;5.20;1.00
5457;DHT22;2751;49.802;9.944;2023-03-04T16:28:21;5.10;1.00
5457;DHT22;2751;49.802;9.944;2023-03-04T16:30:48;5.20;1.00
5457;DHT22;2751;49.802;9.944;2023-03-04T16:33:15;5.20;1.00
5457;DHT22;2751;49.802;9.944;2023-03-04T16:35:44;5.20;1.00
5457;DHT22;2751;49.802;9.944;2023-03-04T16:38:17;5.20;1.00
5457;DHT22;2751;49.802;9.944;2023-03-04T16:40:45;5.20;1.00
5457;DHT22;2751;49.802;9.944;2023-03-04T16:43:13;5.20;1.00
5457;DHT22;2751;49.802;9.944;2023-03-04T16:45:40;5.10;1.00
5457;DHT22;2751;49.802;9.944;2023-03-04T16:48:07;5.10;1.00
5457;DHT22;2751;49.802;9.944;2023-03-04T16:50:35;5.00;1.00
5457;DHT22;2751;49.802;9.944;2023-03-04T16:53:04;5.00;1.00
5457;DHT22;2751;49.802;9.944;2023-03-04T16:55:31;5.00;1.00
5457;DHT22;2751;49.802;9.944;2023-03-04T16:57:58;5.00;1.00